Flight Track Log - Related Links

Times and Time Zones

All times are in EDT time to prevent confusion due to time zone crossing. See the UAL4336 flight status page for this flight to view local times or setup timezone preferences in your user account.

Time Position Orientation Groundspeed Altitude Reporting Facility
EDT Latitude Longitude Course Direction KTS MPH feet Rate Location/Type
Fri 10:16:36 AM 29.9764 -95.2983 90° East 167 192 900  Level Houston Center
Fri 10:17:50 AM 29.9231 -95.2422 138° Southeast 264 304 3,000 1,579 Climbing Houston Center
Fri 10:18:11 AM 29.9042 -95.2203 135° Southeast 258 297 3,400 1,180 Climbing Houston Center
Fri 10:18:51 AM 29.8578 -95.1731 139° Southeast 314 361 4,200 1,548 Climbing Houston Center
Fri 10:19:13 AM 29.8506 -95.1489 109° East 282 325 5,000 2,754 Climbing Houston Center
Fri 10:19:52 AM 29.8289 -95.0875 112° Southeast 287 330 7,000 2,419 Climbing Houston Center
Fri 10:20:15 AM 29.8281 -95.0597 92° East 291 335 7,500 1,967 Climbing Houston Center
Fri 10:20:53 AM 29.8408 -94.9919 78° East 300 345 9,000 1,935 Climbing Houston Center
Fri 10:21:00 AM 29.9834 -94.7253 90° East  Level FlightAware Approximate
Fri 10:21:17 AM 29.8478 -94.9653 73° East 305 351 9,500  Level Houston Center
Fri 10:22:19 AM 29.8717 -94.8592 75° East 335 386 10,800 1,113 Climbing Houston Center
Fri 10:23:21 AM 29.8994 -94.7347 76° East 394 453 11,800 1,500 Climbing Houston Center
Fri 10:24:23 AM 29.9344 -94.5797 75° East 414 476 13,900 2,177 Climbing Houston Center
Fri 10:25:25 AM 29.9625 -94.4569 75° East 402 463 16,300 1,839 Climbing Houston Center
Fri 10:26:27 AM 29.9886 -94.3358 76° East 394 453 17,700 1,306 Climbing Houston Center
Fri 10:27:29 AM 30.0081 -94.2056 80° East 409 471 19,000 629 Climbing Houston Center
Fri 10:28:31 AM 30.0256 -94.0672 82° East 434 499 19,000  Level Houston Center
Fri 10:29:33 AM 30.0431 -93.9306 82° East 432 497 19,000  Level Houston Center
Fri 10:30:35 AM 30.0633 -93.7600 82° East 447 514 19,000  Level Houston Center
Fri 10:31:37 AM 30.0817 -93.6097 82° East 470 541 19,000  Level Houston Center
Fri 10:32:39 AM 30.1011 -93.4433 82° East 479 551 19,000  Level Houston Center
Fri 10:33:42 AM 30.1192 -93.2911 82° East 482 555 19,000  Level Houston Center
Fri 10:34:44 AM 30.1378 -93.1375 82° East 485 558 19,000  Level Houston Center
Fri 10:35:46 AM 30.1642 -92.9844 79° East 488 562 19,000  Level Houston Center
Fri 10:36:48 AM 30.1944 -92.8314 77° East 493 567 19,000  Level Houston Center
Fri 10:37:50 AM 30.2311 -92.6478 77° East 490 564 19,000  Level Houston Center
Fri 10:38:52 AM 30.2597 -92.4947 78° East 491 565 19,000 -48 Level Houston Center
Fri 10:39:54 AM 30.2892 -92.3411 77° East 491 565 18,900 -629 Descending Houston Center
Fri 10:40:56 AM 30.3183 -92.1914 77° East 485 558 17,700 -1,742 Descending Houston Center
Fri 10:41:58 AM 30.3450 -92.0467 78° East 470 541 15,300 -2,640 Descending Houston Center
Fri 10:43:01 AM 30.3781 -91.8794 77° East 451 519 12,200 -2,064 Descending Houston Center
Fri 10:44:03 AM 30.4011 -91.7569 78° East 403 464 11,000 -581 Descending Houston Center
Fri 10:45:05 AM 30.4197 -91.6553 78° East 360 414 11,000 -145 Level Houston Center
Fri 10:46:07 AM 30.4378 -91.5486 79° East 344 396 10,700 -1,065 Descending Houston Center
Fri 10:47:09 AM 30.4361 -91.4414 91° East 338 389 8,800 -1,887 Descending Houston Center
Fri 10:48:11 AM 30.4292 -91.3178 94° East 324 373 6,800 -1,742 Descending Houston Center
Fri 10:49:13 AM 30.3975 -91.2325 113° Southeast 295 339 5,200 -1,597 Descending Houston Center
Fri 10:50:15 AM 30.3767 -91.1522 107° East 276 318 3,500 -1,113 Descending Houston Center
Fri 10:51:17 AM 30.4358 -91.1069 33° Northeast 271 312 2,900 -581 Descending Houston Center

Login

Don't have an account? Register now (free) for customized features, flight alerts, and more!